Time;durP1;ratioP1;P1;durP2;ratioP2;P2;SDS_P1;SDS_P2;PMS_P1;PMS_P2;Temp;Humidity;BMP_temperature;BMP_pressure;BME280_temperature;BME280_humidity;BME280_pressure;Samples;Min_cycle;Max_cycle;Signal;HPM_P1;HPM_P2
2022/06/07 00:00:05;;;;;;;0.88;0.60;;;;;;;;;;510922;28;1441;-81
2022/06/07 00:00:21;;;;;;;0.93;0.60;;;;;;;;;;510496;28;1752;-81
2022/06/07 00:00:37;;;;;;;0.87;0.60;;;;;;;;;;512941;28;1440;-81
2022/06/07 00:00:52;;;;;;;0.90;0.60;;;;;;;;;;515373;28;2013;-81
2022/06/07 00:01:08;;;;;;;1.10;0.70;;;;;;;;;;514344;28;1384;-81
2022/06/07 00:01:23;;;;;;;0.80;0.70;;;;;;;;;;513801;28;1545;-81
2022/06/07 00:01:39;;;;;;;1.00;0.60;;;;;;;;;;514606;28;1672;-81
2022/06/07 00:01:54;;;;;;;1.20;0.60;;;;;;;;;;514127;28;1463;-81
2022/06/07 00:02:10;;;;;;;1.80;0.60;;;;;;;;;;514611;28;1500;-81
2022/06/07 00:02:28;;;;;;;1.42;0.60;;;;;;;;;;515426;28;1550;-81
2022/06/07 00:02:44;;;;;;;0.80;0.60;;;;;;;;;;516128;28;1452;-81
2022/06/07 00:02:59;;;;;;;1.05;0.63;;;;;;;;;;516674;28;1467;-81
2022/06/07 00:03:15;;;;;;;1.40;0.60;;;;;;;;;;517935;28;1495;-81
2022/06/07 00:03:30;;;;;;;1.57;0.60;;;;;;;;;;517109;28;1451;-81
2022/06/07 00:03:45;;;;;;;1.52;0.65;;;;;;;;;;514685;28;1606;-81
2022/06/07 00:04:02;;;;;;;1.40;0.60;;;;;;;;;;514697;28;1543;-81
2022/06/07 00:04:17;;;;;;;1.30;0.70;;;;;;;;;;514658;28;1462;-81
2022/06/07 00:04:33;;;;;;;1.50;0.80;;;;;;;;;;514807;28;1488;-81
2022/06/07 00:04:49;;;;;;;1.30;0.73;;;;;;;;;;516023;28;1491;-81
2022/06/07 00:05:04;;;;;;;1.50;0.70;;;;;;;;;;517332;28;1547;-81
2022/06/07 00:05:20;;;;;;;1.40;0.60;;;;;;;;;;517578;28;1473;-81
2022/06/07 00:05:35;;;;;;;1.42;0.65;;;;;;;;;;517586;28;1649;-81
2022/06/07 00:05:51;;;;;;;1.53;0.77;;;;;;;;;;518639;28;1491;-80
2022/06/07 00:06:06;;;;;;;1.23;0.73;;;;;;;;;;516509;28;1765;-81
2022/06/07 00:06:21;;;;;;;1.40;0.70;;;;;;;;;;514474;28;1389;-81
2022/06/07 00:06:37;;;;;;;1.27;0.70;;;;;;;;;;514274;28;1648;-81
2022/06/07 00:06:52;;;;;;;1.05;0.70;;;;;;;;;;514734;28;1543;-81
2022/06/07 00:07:09;;;;;;;1.70;0.67;;;;;;;;;;514315;28;1590;-81
2022/06/07 00:07:26;;;;;;;1.67;0.70;;;;;;;;;;515228;28;1552;-81
2022/06/07 00:07:41;;;;;;;0.77;0.60;;;;;;;;;;515312;28;2079;-81
2022/06/07 00:07:57;;;;;;;1.47;0.70;;;;;;;;;;517510;28;1459;-81
2022/06/07 00:08:12;;;;;;;1.83;0.70;;;;;;;;;;519096;28;1740;-81
2022/06/07 00:08:31;;;;;;;1.50;0.60;;;;;;;;;;518988;28;1459;-81
2022/06/07 00:08:46;;;;;;;1.38;0.60;;;;;;;;;;517135;28;1492;-81
2022/06/07 00:09:02;;;;;;;1.20;0.65;;;;;;;;;;515835;28;1441;-81
2022/06/07 00:09:20;;;;;;;1.42;0.70;;;;;;;;;;517327;28;1896;-81
2022/06/07 00:09:36;;;;;;;1.50;0.60;;;;;;;;;;516687;28;1503;-81
2022/06/07 00:09:52;;;;;;;1.10;0.60;;;;;;;;;;517301;28;1595;-81
2022/06/07 00:10:07;;;;;;;1.50;0.68;;;;;;;;;;516535;28;1444;-81
2022/06/07 00:10:24;;;;;;;2.75;0.70;;;;;;;;;;518278;28;1770;-81
2022/06/07 00:10:39;;;;;;;1.95;0.70;;;;;;;;;;519708;28;1466;-81
2022/06/07 00:10:55;;;;;;;0.90;0.60;;;;;;;;;;521607;28;1461;-81
2022/06/07 00:11:10;;;;;;;0.87;0.50;;;;;;;;;;520440;28;1403;-81
2022/06/07 00:11:26;;;;;;;2.08;0.60;;;;;;;;;;519525;28;1977;-81
2022/06/07 00:11:41;;;;;;;2.83;0.70;;;;;;;;;;518865;28;1612;-81
2022/06/07 00:11:58;;;;;;;2.70;0.70;;;;;;;;;;519070;28;1412;-81
2022/06/07 00:12:13;;;;;;;1.85;0.60;;;;;;;;;;516835;28;1511;-81
2022/06/07 00:12:29;;;;;;;0.82;0.60;;;;;;;;;;516798;28;1571;-81
2022/06/07 00:12:44;;;;;;;1.13;0.60;;;;;;;;;;515296;28;1518;-81
2022/06/07 00:12:59;;;;;;;1.40;0.70;;;;;;;;;;515325;28;1364;-81
2022/06/07 00:13:16;;;;;;;2.23;0.70;;;;;;;;;;515062;28;2055;-81
2022/06/07 00:13:32;;;;;;;2.28;0.75;;;;;;;;;;514442;28;1557;-81
2022/06/07 00:13:50;;;;;;;1.67;0.70;;;;;;;;;;513679;28;1472;-81
2022/06/07 00:14:06;;;;;;;2.00;0.60;;;;;;;;;;515911;28;1492;-81
2022/06/07 00:14:22;;;;;;;2.40;0.60;;;;;;;;;;516332;28;1757;-81
2022/06/07 00:14:37;;;;;;;1.50;0.67;;;;;;;;;;517588;28;1578;-81
2022/06/07 00:14:52;;;;;;;1.40;0.70;;;;;;;;;;518533;28;1453;-81
2022/06/07 00:15:09;;;;;;;2.10;0.70;;;;;;;;;;516630;28;1476;-81
2022/06/07 00:15:25;;;;;;;2.60;0.70;;;;;;;;;;517211;28;1498;-81
2022/06/07 00:15:41;;;;;;;1.70;0.73;;;;;;;;;;517731;28;1479;-81
2022/06/07 00:15:57;;;;;;;1.33;0.80;;;;;;;;;;516817;28;1514;-81
2022/06/07 00:16:14;;;;;;;1.35;0.80;;;;;;;;;;516693;28;1459;-81
2022/06/07 00:16:29;;;;;;;1.30;0.65;;;;;;;;;;517394;28;1335;-81
2022/06/07 00:16:46;;;;;;;1.63;0.60;;;;;;;;;;516984;28;1470;-81
2022/06/07 00:17:05;;;;;;;1.42;0.70;;;;;;;;;;514644;28;1601;-81
2022/06/07 00:17:20;;;;;;;1.52;0.75;;;;;;;;;;514965;28;1419;-81
2022/06/07 00:17:36;;;;;;;1.85;0.75;;;;;;;;;;516180;28;1430;-83
2022/06/07 00:17:52;;;;;;;2.33;0.70;;;;;;;;;;516014;28;1492;-81
2022/06/07 00:18:07;;;;;;;2.00;0.70;;;;;;;;;;514945;28;1588;-81
2022/06/07 00:18:23;;;;;;;1.40;0.68;;;;;;;;;;514585;28;1771;-81
2022/06/07 00:18:38;;;;;;;2.00;0.70;;;;;;;;;;515678;28;1910;-81
2022/06/07 00:18:54;;;;;;;2.50;0.80;;;;;;;;;;517180;28;1427;-81
2022/06/07 00:19:09;;;;;;;1.60;0.70;;;;;;;;;;518932;28;1497;-81
2022/06/07 00:19:25;;;;;;;1.55;0.70;;;;;;;;;;518639;28;1471;-81
2022/06/07 00:19:41;;;;;;;3.50;0.83;;;;;;;;;;516900;28;1531;-81
2022/06/07 00:19:56;;;;;;;3.75;0.93;;;;;;;;;;516291;28;1463;-81
2022/06/07 00:20:12;;;;;;;1.47;0.80;;;;;;;;;;517232;28;1379;-82
2022/06/07 00:20:27;;;;;;;1.35;0.65;;;;;;;;;;516474;28;1536;-82
2022/06/07 00:20:43;;;;;;;1.47;0.70;;;;;;;;;;516849;28;1590;-82
2022/06/07 00:21:01;;;;;;;1.98;0.70;;;;;;;;;;518657;28;1483;-81
2022/06/07 00:21:16;;;;;;;1.90;0.80;;;;;;;;;;518238;28;1494;-81
2022/06/07 00:21:31;;;;;;;1.20;0.80;;;;;;;;;;517545;28;1455;-81
2022/06/07 00:21:47;;;;;;;0.97;0.70;;;;;;;;;;519071;28;1524;-81
2022/06/07 00:22:03;;;;;;;1.40;0.80;;;;;;;;;;518331;28;1517;-81
2022/06/07 00:22:18;;;;;;;1.73;0.77;;;;;;;;;;516895;28;1503;-81
2022/06/07 00:22:35;;;;;;;1.50;0.73;;;;;;;;;;518899;28;1550;-81
2022/06/07 00:22:51;;;;;;;1.50;0.80;;;;;;;;;;518834;28;1698;-81
2022/06/07 00:23:08;;;;;;;1.88;0.68;;;;;;;;;;516851;28;1450;-81
2022/06/07 00:23:24;;;;;;;2.17;0.77;;;;;;;;;;514861;28;1488;-82
2022/06/07 00:23:40;;;;;;;2.45;0.80;;;;;;;;;;515531;28;1609;-81
2022/06/07 00:23:57;;;;;;;1.80;0.77;;;;;;;;;;516802;28;1427;-81
2022/06/07 00:24:13;;;;;;;1.20;0.60;;;;;;;;;;516840;28;1522;-81
2022/06/07 00:24:28;;;;;;;1.05;0.60;;;;;;;;;;516399;28;1438;-81
2022/06/07 00:24:44;;;;;;;1.60;0.70;;;;;;;;;;516246;28;1548;-81
2022/06/07 00:25:00;;;;;;;2.05;0.90;;;;;;;;;;517268;28;1646;-81
2022/06/07 00:25:16;;;;;;;1.50;0.80;;;;;;;;;;517743;28;1616;-81
2022/06/07 00:25:32;;;;;;;1.35;0.70;;;;;;;;;;519222;28;1872;-81
2022/06/07 00:25:52;;;;;;;1.50;0.70;;;;;;;;;;519661;28;1657;-81
2022/06/07 00:26:07;;;;;;;1.98;0.80;;;;;;;;;;518574;28;1615;-81
2022/06/07 00:26:22;;;;;;;2.03;0.90;;;;;;;;;;516475;28;1449;-81
2022/06/07 00:26:38;;;;;;;1.90;0.90;;;;;;;;;;516515;28;1621;-81
2022/06/07 00:26:54;;;;;;;1.73;0.80;;;;;;;;;;517229;28;1369;-81
2022/06/07 00:27:09;;;;;;;1.97;0.80;;;;;;;;;;517065;28;1508;-81
2022/06/07 00:27:24;;;;;;;1.90;0.80;;;;;;;;;;516940;28;1392;-81
2022/06/07 00:27:41;;;;;;;1.60;0.80;;;;;;;;;;516762;28;1680;-81
2022/06/07 00:27:56;;;;;;;1.65;0.80;;;;;;;;;;517479;28;1416;-81
2022/06/07 00:28:12;;;;;;;2.10;0.80;;;;;;;;;;517081;28;1522;-81
2022/06/07 00:28:29;;;;;;;2.00;0.88;;;;;;;;;;518665;28;1572;-81
2022/06/07 00:28:44;;;;;;;1.58;0.80;;;;;;;;;;517416;28;1547;-81
2022/06/07 00:29:00;;;;;;;1.30;0.80;;;;;;;;;;515908;28;1444;-81
2022/06/07 00:29:16;;;;;;;1.23;0.70;;;;;;;;;;516778;28;1511;-81
2022/06/07 00:29:32;;;;;;;1.27;0.70;;;;;;;;;;514927;28;1929;-81
2022/06/07 00:29:48;;;;;;;1.30;0.73;;;;;;;;;;512648;28;1390;-81
2022/06/07 00:30:05;;;;;;;2.17;0.88;;;;;;;;;;513600;28;1659;-81
2022/06/07 00:30:20;;;;;;;3.70;0.82;;;;;;;;;;512674;28;1700;-81
2022/06/07 00:30:36;;;;;;;3.08;0.80;;;;;;;;;;511591;28;1493;-81
2022/06/07 00:30:52;;;;;;;2.10;0.80;;;;;;;;;;513046;28;1908;-81
2022/06/07 00:31:09;;;;;;;1.80;0.80;;;;;;;;;;512806;28;1413;-81
2022/06/07 00:31:25;;;;;;;2.03;0.85;;;;;;;;;;513332;28;1970;-81
2022/06/07 00:31:41;;;;;;;1.58;0.80;;;;;;;;;;515504;28;1525;-81
2022/06/07 00:31:59;;;;;;;1.30;0.80;;;;;;;;;;516482;28;1384;-83
2022/06/07 00:32:17;;;;;;;1.00;0.80;;;;;;;;;;517715;28;1482;-82
2022/06/07 00:32:33;;;;;;;1.95;0.80;;;;;;;;;;520147;28;1462;-81
2022/06/07 00:32:49;;;;;;;2.05;0.80;;;;;;;;;;518490;28;1416;-81
2022/06/07 00:33:05;;;;;;;1.52;0.90;;;;;;;;;;517904;28;1546;-81
2022/06/07 00:33:22;;;;;;;2.10;0.90;;;;;;;;;;518523;28;1544;-80
2022/06/07 00:33:38;;;;;;;2.40;0.80;;;;;;;;;;518474;28;1482;-81
2022/06/07 00:33:54;;;;;;;2.00;0.80;;;;;;;;;;518839;28;1499;-81
2022/06/07 00:34:11;;;;;;;1.70;0.70;;;;;;;;;;518710;28;1595;-81
2022/06/07 00:34:27;;;;;;;1.85;0.80;;;;;;;;;;516669;28;1538;-81
2022/06/07 00:34:42;;;;;;;1.70;0.80;;;;;;;;;;517994;28;1439;-81
2022/06/07 00:34:58;;;;;;;1.85;0.90;;;;;;;;;;518275;28;1618;-81
2022/06/07 00:35:14;;;;;;;2.33;0.93;;;;;;;;;;519058;28;1447;-81
2022/06/07 00:35:30;;;;;;;2.75;0.90;;;;;;;;;;518328;28;1649;-81
2022/06/07 00:35:46;;;;;;;2.13;0.80;;;;;;;;;;518837;28;1442;-81
2022/06/07 00:36:08;;;;;;;1.02;0.70;;;;;;;;;;517173;28;1643;-81
2022/06/07 00:36:24;;;;;;;0.90;0.70;;;;;;;;;;518300;28;1482;-81
2022/06/07 00:36:40;;;;;;;2.23;0.80;;;;;;;;;;518837;28;1479;-81
2022/06/07 00:36:55;;;;;;;2.38;0.90;;;;;;;;;;518235;28;1518;-81
2022/06/07 00:37:10;;;;;;;1.52;0.80;;;;;;;;;;518942;28;1404;-81
2022/06/07 00:37:26;;;;;;;1.47;0.80;;;;;;;;;;518637;28;1966;-81
2022/06/07 00:37:41;;;;;;;1.20;0.80;;;;;;;;;;517680;28;1495;-81
2022/06/07 00:37:57;;;;;;;1.55;0.80;;;;;;;;;;518240;28;1483;-81
2022/06/07 00:38:13;;;;;;;1.92;0.80;;;;;;;;;;518426;28;1430;-82
2022/06/07 00:38:30;;;;;;;1.98;0.80;;;;;;;;;;518484;28;1629;-81
2022/06/07 00:38:46;;;;;;;1.65;0.75;;;;;;;;;;518497;28;1587;-81
2022/06/07 00:39:03;;;;;;;1.80;0.80;;;;;;;;;;517454;28;1488;-81
2022/06/07 00:39:18;;;;;;;2.47;0.75;;;;;;;;;;517564;28;1698;-81
2022/06/07 00:39:34;;;;;;;2.05;0.80;;;;;;;;;;518737;28;1485;-81
2022/06/07 00:39:49;;;;;;;1.77;0.80;;;;;;;;;;518275;28;1625;-81
2022/06/07 00:40:06;;;;;;;1.23;0.70;;;;;;;;;;519502;28;1542;-81
2022/06/07 00:40:22;;;;;;;1.33;0.70;;;;;;;;;;520662;28;1774;-81
2022/06/07 00:40:37;;;;;;;1.50;0.80;;;;;;;;;;520630;28;1529;-81
2022/06/07 00:40:53;;;;;;;1.38;0.90;;;;;;;;;;520729;28;1509;-81
2022/06/07 00:41:09;;;;;;;1.33;0.80;;;;;;;;;;520729;28;1521;-81
2022/06/07 00:41:24;;;;;;;1.52;0.80;;;;;;;;;;520528;28;1512;-81
2022/06/07 00:41:41;;;;;;;3.55;0.88;;;;;;;;;;520547;28;1510;-81
2022/06/07 00:41:57;;;;;;;3.92;0.80;;;;;;;;;;520901;28;1422;-81
2022/06/07 00:42:12;;;;;;;2.42;0.80;;;;;;;;;;520794;28;1407;-81
2022/06/07 00:42:28;;;;;;;1.60;0.70;;;;;;;;;;521063;28;1543;-81
2022/06/07 00:42:43;;;;;;;1.53;0.70;;;;;;;;;;521154;28;1803;-80
2022/06/07 00:42:59;;;;;;;1.20;0.80;;;;;;;;;;520530;28;1423;-81
2022/06/07 00:43:14;;;;;;;1.37;0.80;;;;;;;;;;518391;28;1487;-81
2022/06/07 00:43:30;;;;;;;1.60;0.80;;;;;;;;;;516421;28;1480;-81
2022/06/07 00:44:22;;;;;;;2.35;0.75;;;;;;;;;;517057;28;1877;-81
2022/06/07 00:44:43;;;;;;;2.13;0.80;;;;;;;;;;518610;28;1423;-81
2022/06/07 00:44:58;;;;;;;1.20;0.70;;;;;;;;;;518524;28;1550;-81
2022/06/07 00:45:17;;;;;;;1.42;0.73;;;;;;;;;;518241;28;1517;-81
2022/06/07 00:45:33;;;;;;;2.20;0.80;;;;;;;;;;516756;28;1448;-81
2022/06/07 00:45:49;;;;;;;2.67;0.80;;;;;;;;;;514574;28;1825;-81
2022/06/07 00:46:10;;;;;;;4.33;0.80;;;;;;;;;;514675;28;1636;-81
2022/06/07 00:46:25;;;;;;;3.13;0.90;;;;;;;;;;514833;28;1597;-81
2022/06/07 00:46:43;;;;;;;2.58;0.80;;;;;;;;;;514740;28;1484;-81
2022/06/07 00:47:03;;;;;;;1.95;0.80;;;;;;;;;;515139;28;1555;-81
2022/06/07 00:47:23;;;;;;;1.10;0.80;;;;;;;;;;512669;28;1672;-81
2022/06/07 00:47:38;;;;;;;1.38;0.80;;;;;;;;;;512443;28;1551;-81
2022/06/07 00:47:53;;;;;;;2.15;0.80;;;;;;;;;;515123;28;1568;-81
2022/06/07 00:48:09;;;;;;;2.27;0.80;;;;;;;;;;514090;28;1545;-81
2022/06/07 00:48:25;;;;;;;1.77;0.80;;;;;;;;;;516233;28;1488;-81
2022/06/07 00:48:41;;;;;;;1.60;0.70;;;;;;;;;;517794;28;1451;-81
2022/06/07 00:48:56;;;;;;;1.40;0.77;;;;;;;;;;518862;28;1439;-81
2022/06/07 00:49:14;;;;;;;1.80;0.80;;;;;;;;;;518783;28;1675;-83
2022/06/07 00:49:37;;;;;;;1.52;0.73;;;;;;;;;;518446;28;1769;-81
2022/06/07 00:50:00;;;;;;;2.45;0.80;;;;;;;;;;518680;28;1364;-81
2022/06/07 00:50:22;;;;;;;0.95;0.70;;;;;;;;;;518809;28;1447;-81
2022/06/07 00:50:43;;;;;;;0.90;0.70;;;;;;;;;;517756;28;1659;-81
2022/06/07 00:51:06;;;;;;;1.15;0.70;;;;;;;;;;518661;28;1592;-81
2022/06/07 00:51:21;;;;;;;1.10;0.70;;;;;;;;;;516205;28;1915;-81
2022/06/07 00:51:36;;;;;;;1.10;0.70;;;;;;;;;;516453;28;1504;-81
2022/06/07 00:51:52;;;;;;;1.10;0.80;;;;;;;;;;514363;28;1540;-81
2022/06/07 00:52:08;;;;;;;2.50;0.80;;;;;;;;;;514502;28;1381;-81
2022/06/07 00:52:25;;;;;;;3.30;0.80;;;;;;;;;;514515;28;1576;-81
2022/06/07 00:52:41;;;;;;;2.33;0.80;;;;;;;;;;516085;28;1494;-81
2022/06/07 00:52:59;;;;;;;1.48;0.80;;;;;;;;;;516811;28;1408;-81
2022/06/07 00:53:27;;;;;;;1.88;0.80;;;;;;;;;;516678;28;1620;-81
2022/06/07 00:53:42;;;;;;;0.98;0.75;;;;;;;;;;516832;28;1498;-81
2022/06/07 00:53:58;;;;;;;0.90;0.70;;;;;;;;;;517014;28;1480;-82
2022/06/07 00:54:21;;;;;;;1.30;0.80;;;;;;;;;;514907;28;1588;-82
2022/06/07 00:54:37;;;;;;;1.23;0.70;;;;;;;;;;515690;28;1592;-82
2022/06/07 00:54:54;;;;;;;1.30;0.90;;;;;;;;;;516738;28;1483;-81
2022/06/07 00:55:10;;;;;;;1.92;0.90;;;;;;;;;;516206;28;1456;-81
2022/06/07 00:55:25;;;;;;;1.90;0.80;;;;;;;;;;516773;28;1436;-81
2022/06/07 00:55:41;;;;;;;1.27;0.75;;;;;;;;;;514794;28;1586;-81
2022/06/07 00:55:59;;;;;;;1.13;0.70;;;;;;;;;;514250;28;1461;-81
2022/06/07 00:56:14;;;;;;;1.63;0.80;;;;;;;;;;514619;28;1475;-81
2022/06/07 00:56:30;;;;;;;1.93;0.80;;;;;;;;;;512751;28;1585;-81
2022/06/07 00:56:45;;;;;;;1.73;0.70;;;;;;;;;;512951;28;1611;-81
2022/06/07 00:57:01;;;;;;;1.80;0.73;;;;;;;;;;513353;28;1440;-81
2022/06/07 00:57:17;;;;;;;1.58;0.80;;;;;;;;;;514942;28;1709;-81
2022/06/07 00:57:33;;;;;;;2.27;0.70;;;;;;;;;;515306;28;1531;-81
2022/06/07 00:57:48;;;;;;;2.30;0.70;;;;;;;;;;516830;28;1598;-81
2022/06/07 00:58:04;;;;;;;2.55;0.70;;;;;;;;;;514228;28;1527;-81
2022/06/07 00:58:21;;;;;;;2.38;0.77;;;;;;;;;;515070;28;1536;-81
2022/06/07 00:58:36;;;;;;;1.40;0.70;;;;;;;;;;515148;28;1492;-80
2022/06/07 00:58:52;;;;;;;1.35;0.70;;;;;;;;;;516512;28;1511;-81
2022/06/07 00:59:07;;;;;;;1.30;0.80;;;;;;;;;;516552;28;1474;-81
2022/06/07 00:59:24;;;;;;;1.53;0.70;;;;;;;;;;516123;28;1654;-81
2022/06/07 00:59:40;;;;;;;2.47;0.90;;;;;;;;;;516288;28;1401;-81
2022/06/07 00:59:55;;;;;;;2.23;0.80;;;;;;;;;;516585;28;1532;-81
2022/06/07 01:00:14;;;;;;;1.80;0.73;;;;;;;;;;514576;28;1661;-81
2022/06/07 01:00:30;;;;;;;2.42;0.80;;;;;;;;;;514383;28;1495;-81
2022/06/07 01:00:46;;;;;;;2.43;0.80;;;;;;;;;;513723;28;1664;-81
2022/06/07 01:01:01;;;;;;;1.77;0.80;;;;;;;;;;513882;28;1606;-81
2022/06/07 01:01:17;;;;;;;1.52;0.70;;;;;;;;;;513593;28;1417;-81
2022/06/07 01:01:33;;;;;;;1.90;0.70;;;;;;;;;;512607;28;1685;-81
2022/06/07 01:01:50;;;;;;;2.93;0.80;;;;;;;;;;512456;28;1610;-81
2022/06/07 01:02:06;;;;;;;2.65;0.80;;;;;;;;;;512506;28;1652;-81
2022/06/07 01:02:22;;;;;;;2.03;0.80;;;;;;;;;;512861;28;1504;-82
2022/06/07 01:02:38;;;;;;;2.47;0.77;;;;;;;;;;514516;28;1578;-81
2022/06/07 01:02:55;;;;;;;2.30;0.80;;;;;;;;;;514624;28;1705;-81
2022/06/07 01:03:11;;;;;;;1.85;0.98;;;;;;;;;;515629;28;1388;-81
2022/06/07 01:03:27;;;;;;;1.40;0.90;;;;;;;;;;517149;28;1436;-81
2022/06/07 01:03:42;;;;;;;1.00;0.80;;;;;;;;;;514760;28;1618;-81
2022/06/07 01:03:57;;;;;;;1.27;0.80;;;;;;;;;;515339;28;1468;-81
2022/06/07 01:04:13;;;;;;;3.20;0.80;;;;;;;;;;516449;28;1543;-81
2022/06/07 01:04:28;;;;;;;2.33;0.77;;;;;;;;;;516859;28;1484;-81
2022/06/07 01:04:43;;;;;;;1.30;0.70;;;;;;;;;;516575;28;1684;-81
2022/06/07 01:04:59;;;;;;;1.15;0.80;;;;;;;;;;516980;28;1559;-81
2022/06/07 01:05:14;;;;;;;1.47;0.80;;;;;;;;;;516623;28;1468;-81
2022/06/07 01:05:30;;;;;;;3.17;0.70;;;;;;;;;;516689;28;1677;-81
2022/06/07 01:05:45;;;;;;;3.03;0.80;;;;;;;;;;518585;28;1541;-81
2022/06/07 01:10:43;;;;;;;1.67;0.80;;;;;;;;;;519295;28;1517;-81
2022/06/07 01:10:43;;;;;;;2.08;0.80;;;;;;;;;;518985;28;1431;-81
2022/06/07 01:10:58;;;;;;;1.30;0.80;;;;;;;;;;519416;28;1395;-81
2022/06/07 01:11:14;;;;;;;1.67;0.82;;;;;;;;;;518762;28;1479;-81
2022/06/07 01:11:29;;;;;;;1.20;0.80;;;;;;;;;;517250;28;1906;-81
2022/06/07 01:11:44;;;;;;;1.50;0.80;;;;;;;;;;516114;28;1527;-81
2022/06/07 01:12:00;;;;;;;2.10;0.80;;;;;;;;;;516181;28;1579;-81
2022/06/07 01:12:15;;;;;;;2.77;0.70;;;;;;;;;;514282;28;1485;-81
2022/06/07 01:12:34;;;;;;;2.67;0.80;;;;;;;;;;512191;28;1571;-81
2022/06/07 01:12:49;;;;;;;2.00;0.80;;;;;;;;;;512799;28;1532;-81
2022/06/07 01:13:05;;;;;;;1.52;0.82;;;;;;;;;;512899;28;1662;-81
2022/06/07 01:13:25;;;;;;;1.30;0.80;;;;;;;;;;513893;28;1441;-81
2022/06/07 01:13:41;;;;;;;1.88;0.80;;;;;;;;;;514602;28;1476;-81
2022/06/07 01:13:56;;;;;;;2.20;0.70;;;;;;;;;;513981;28;1298;-81
2022/06/07 01:14:12;;;;;;;1.75;0.70;;;;;;;;;;512219;28;1661;-81
2022/06/07 01:14:27;;;;;;;1.63;0.70;;;;;;;;;;510359;28;1461;-81
2022/06/07 01:14:43;;;;;;;1.48;0.70;;;;;;;;;;511316;28;1533;-81
2022/06/07 01:14:59;;;;;;;2.43;0.73;;;;;;;;;;512663;28;1428;-81
2022/06/07 01:15:15;;;;;;;2.22;0.80;;;;;;;;;;511381;28;1597;-81
2022/06/07 01:15:30;;;;;;;1.60;0.70;;;;;;;;;;510568;29;1501;-81
2022/06/07 01:15:47;;;;;;;1.83;0.67;;;;;;;;;;509956;28;1525;-81
2022/06/07 01:16:06;;;;;;;2.92;0.77;;;;;;;;;;510646;28;1465;-82
2022/06/07 01:16:22;;;;;;;2.33;0.70;;;;;;;;;;510426;28;1721;-82
2022/06/07 01:16:37;;;;;;;2.10;0.80;;;;;;;;;;510907;28;2007;-82
2022/06/07 01:16:52;;;;;;;1.77;0.70;;;;;;;;;;509617;29;1712;-81
2022/06/07 01:17:08;;;;;;;2.00;0.60;;;;;;;;;;509122;29;2051;-81
2022/06/07 01:17:23;;;;;;;1.13;0.63;;;;;;;;;;510891;28;1501;-81
2022/06/07 01:17:40;;;;;;;0.98;0.60;;;;;;;;;;512026;28;1755;-80
2022/06/07 01:17:55;;;;;;;1.23;0.70;;;;;;;;;;512217;28;1623;-81
2022/06/07 01:18:10;;;;;;;2.17;0.70;;;;;;;;;;512528;28;1370;-81
2022/06/07 01:18:26;;;;;;;2.08;0.70;;;;;;;;;;512359;28;1555;-81
2022/06/07 01:18:41;;;;;;;2.50;0.73;;;;;;;;;;511505;28;1498;-81
2022/06/07 01:18:57;;;;;;;2.05;0.80;;;;;;;;;;509613;28;1553;-81
2022/06/07 01:19:12;;;;;;;1.30;0.70;;;;;;;;;;512611;28;1750;-81
2022/06/07 01:19:27;;;;;;;1.27;0.70;;;;;;;;;;513040;28;1504;-81
2022/06/07 01:19:43;;;;;;;1.45;0.70;;;;;;;;;;512624;28;1635;-82
2022/06/07 01:19:59;;;;;;;1.70;0.70;;;;;;;;;;514838;28;1767;-81
2022/06/07 01:20:14;;;;;;;2.07;0.70;;;;;;;;;;516321;28;1541;-81
2022/06/07 01:20:30;;;;;;;2.10;0.70;;;;;;;;;;515428;28;1618;-81
2022/06/07 01:20:45;;;;;;;1.33;0.77;;;;;;;;;;516037;28;1376;-81
2022/06/07 01:21:17;;;;;;;1.30;0.75;;;;;;;;;;515518;28;1688;-81
2022/06/07 01:21:34;;;;;;;1.90;0.75;;;;;;;;;;513535;28;1387;-81
2022/06/07 01:21:50;;;;;;;1.90;0.90;;;;;;;;;;514624;28;2130;-81
2022/06/07 01:22:05;;;;;;;1.33;0.70;;;;;;;;;;514188;28;1523;-81
2022/06/07 01:22:21;;;;;;;1.50;0.80;;;;;;;;;;514088;28;1680;-81
2022/06/07 01:22:36;;;;;;;1.33;0.80;;;;;;;;;;513831;28;1492;-81
2022/06/07 01:22:52;;;;;;;3.20;1.00;;;;;;;;;;514191;28;1582;-81
2022/06/07 01:23:08;;;;;;;2.30;0.90;;;;;;;;;;511949;28;1509;-81
2022/06/07 01:23:23;;;;;;;2.00;0.80;;;;;;;;;;511270;28;1751;-81
2022/06/07 01:23:39;;;;;;;2.20;0.90;;;;;;;;;;513249;28;1521;-81
2022/06/07 01:23:55;;;;;;;2.00;0.80;;;;;;;;;;512961;28;1637;-81
2022/06/07 01:24:13;;;;;;;3.10;0.80;;;;;;;;;;513444;28;1516;-81
2022/06/07 01:24:28;;;;;;;2.70;0.80;;;;;;;;;;513157;28;1868;-81
2022/06/07 01:24:44;;;;;;;1.63;0.80;;;;;;;;;;511709;28;1462;-81
2022/06/07 01:25:00;;;;;;;1.45;0.80;;;;;;;;;;510329;28;1486;-81
2022/06/07 01:25:16;;;;;;;1.90;0.82;;;;;;;;;;510758;28;1749;-81
2022/06/07 01:25:31;;;;;;;1.83;0.80;;;;;;;;;;512862;28;1477;-81
2022/06/07 01:25:46;;;;;;;2.90;0.77;;;;;;;;;;512083;28;1632;-81
2022/06/07 01:26:02;;;;;;;3.13;0.80;;;;;;;;;;512828;28;1429;-81
2022/06/07 01:26:17;;;;;;;1.53;0.80;;;;;;;;;;512412;28;1477;-81
2022/06/07 01:26:33;;;;;;;2.33;0.98;;;;;;;;;;513426;28;1793;-81
2022/06/07 01:26:50;;;;;;;3.10;1.40;;;;;;;;;;516883;28;1573;-81
2022/06/07 01:27:07;;;;;;;2.33;1.33;;;;;;;;;;519030;28;1541;-81
2022/06/07 01:27:22;;;;;;;2.10;0.90;;;;;;;;;;515980;28;1520;-81
2022/06/07 01:27:37;;;;;;;3.00;0.80;;;;;;;;;;517088;28;1435;-82
2022/06/07 01:27:53;;;;;;;4.53;0.85;;;;;;;;;;516855;28;1901;-82
2022/06/07 01:28:08;;;;;;;3.53;0.90;;;;;;;;;;517287;28;1460;-82
2022/06/07 01:28:24;;;;;;;1.50;0.80;;;;;;;;;;516804;28;1537;-81
2022/06/07 01:28:40;;;;;;;1.85;0.70;;;;;;;;;;517152;28;1453;-81
2022/06/07 01:28:55;;;;;;;2.63;0.75;;;;;;;;;;514910;28;1431;-81
2022/06/07 01:29:12;;;;;;;2.70;0.80;;;;;;;;;;515209;28;1511;-81
2022/06/07 01:29:27;;;;;;;1.73;0.77;;;;;;;;;;517167;28;1403;-81
2022/06/07 01:29:43;;;;;;;1.53;0.80;;;;;;;;;;517147;28;1772;-81
2022/06/07 01:29:58;;;;;;;1.73;0.80;;;;;;;;;;514444;28;1552;-81
2022/06/07 01:30:14;;;;;;;1.50;0.70;;;;;;;;;;513858;28;1587;-81
2022/06/07 01:30:29;;;;;;;1.60;0.70;;;;;;;;;;514582;28;1540;-81
2022/06/07 01:30:45;;;;;;;1.98;0.80;;;;;;;;;;512148;28;1516;-81
2022/06/07 01:31:00;;;;;;;1.70;0.80;;;;;;;;;;512631;28;1492;-81
2022/06/07 01:31:16;;;;;;;1.93;0.80;;;;;;;;;;511912;28;1695;-81
2022/06/07 01:31:33;;;;;;;1.70;0.80;;;;;;;;;;511024;28;1636;-81
2022/06/07 01:31:48;;;;;;;1.67;0.80;;;;;;;;;;513763;28;1770;-81
2022/06/07 01:32:04;;;;;;;1.87;0.80;;;;;;;;;;515109;28;1531;-81
2022/06/07 01:32:19;;;;;;;1.55;0.70;;;;;;;;;;512887;28;1550;-81
2022/06/07 01:32:35;;;;;;;1.35;0.70;;;;;;;;;;512231;28;1469;-81
2022/06/07 01:32:51;;;;;;;1.10;0.60;;;;;;;;;;511784;28;1589;-81
2022/06/07 01:33:07;;;;;;;1.92;0.80;;;;;;;;;;512147;28;1660;-81
2022/06/07 01:33:22;;;;;;;2.20;0.90;;;;;;;;;;513308;28;1504;-81
2022/06/07 01:33:38;;;;;;;1.60;0.77;;;;;;;;;;514515;28;1539;-81
2022/06/07 01:33:53;;;;;;;1.67;0.70;;;;;;;;;;512326;28;1517;-81
2022/06/07 01:34:10;;;;;;;2.92;0.70;;;;;;;;;;513168;28;1668;-81
2022/06/07 01:34:26;;;;;;;2.95;0.70;;;;;;;;;;513372;28;1482;-81
2022/06/07 01:34:43;;;;;;;1.77;0.77;;;;;;;;;;514204;28;1856;-81
2022/06/07 01:34:59;;;;;;;1.15;0.70;;;;;;;;;;515078;28;1903;-82
2022/06/07 01:35:15;;;;;;;1.47;0.70;;;;;;;;;;513379;28;1505;-82
2022/06/07 01:35:31;;;;;;;2.35;0.73;;;;;;;;;;513480;28;1457;-81
2022/06/07 01:35:48;;;;;;;1.97;0.80;;;;;;;;;;513993;28;1598;-81
2022/06/07 01:36:07;;;;;;;2.65;0.77;;;;;;;;;;514935;28;1437;-81
2022/06/07 01:36:23;;;;;;;1.90;0.77;;;;;;;;;;516228;28;1456;-81
2022/06/07 01:36:39;;;;;;;1.50;0.80;;;;;;;;;;516780;28;1518;-81
2022/06/07 01:36:56;;;;;;;2.03;0.90;;;;;;;;;;514760;28;1445;-81
2022/06/07 01:37:14;;;;;;;1.40;0.80;;;;;;;;;;514771;28;1433;-81
2022/06/07 01:37:31;;;;;;;1.48;0.70;;;;;;;;;;515086;28;1880;-81
2022/06/07 01:37:46;;;;;;;1.67;0.80;;;;;;;;;;514699;28;1599;-81
2022/06/07 01:38:01;;;;;;;1.43;0.80;;;;;;;;;;516299;28;1536;-81
2022/06/07 01:38:17;;;;;;;1.23;0.80;;;;;;;;;;516311;28;1539;-81
2022/06/07 01:38:37;;;;;;;2.33;0.90;;;;;;;;;;517130;28;1459;-81
2022/06/07 01:41:55;;;;;;;1.48;0.70;;;;;;;;;;518456;28;1486;-81
2022/06/07 01:42:12;;;;;;;1.55;0.70;;;;;;;;;;516614;28;1535;-81
2022/06/07 01:42:27;;;;;;;2.45;0.80;;;;;;;;;;516377;28;1640;-81
2022/06/07 01:42:43;;;;;;;2.43;0.80;;;;;;;;;;515424;28;1586;-82
2022/06/07 01:42:59;;;;;;;1.25;0.70;;;;;;;;;;512067;28;1625;-81
2022/06/07 01:43:14;;;;;;;1.00;0.60;;;;;;;;;;513243;28;1441;-80
2022/06/07 01:43:29;;;;;;;1.00;0.60;;;;;;;;;;511155;28;1509;-81
2022/06/07 01:43:45;;;;;;;1.33;0.70;;;;;;;;;;511034;28;1612;-81
2022/06/07 01:44:00;;;;;;;1.60;0.80;;;;;;;;;;511463;28;1640;-81
2022/06/07 01:44:16;;;;;;;2.20;0.80;;;;;;;;;;512744;28;1491;-81
2022/06/07 01:44:37;;;;;;;2.15;0.73;;;;;;;;;;512760;28;1617;-81
2022/06/07 01:44:52;;;;;;;1.73;0.70;;;;;;;;;;515116;28;1506;-81
2022/06/07 01:45:08;;;;;;;1.23;0.80;;;;;;;;;;516887;28;1621;-81
2022/06/07 01:45:24;;;;;;;1.60;0.70;;;;;;;;;;519191;28;1856;-81
2022/06/07 01:45:39;;;;;;;2.10;0.68;;;;;;;;;;516608;28;1630;-81
2022/06/07 01:46:03;;;;;;;1.73;0.70;;;;;;;;;;514529;28;1602;-81
2022/06/07 01:46:19;;;;;;;1.80;0.70;;;;;;;;;;512856;28;1608;-81
2022/06/07 01:46:34;;;;;;;1.55;0.70;;;;;;;;;;512975;28;1566;-81
2022/06/07 01:46:51;;;;;;;1.67;0.73;;;;;;;;;;514889;28;1596;-81
2022/06/07 01:47:10;;;;;;;1.60;0.70;;;;;;;;;;514863;28;1463;-81
2022/06/07 01:47:30;;;;;;;1.42;0.63;;;;;;;;;;512664;28;1701;-81
2022/06/07 01:47:46;;;;;;;1.20;0.73;;;;;;;;;;515847;28;1960;-81
2022/06/07 01:48:01;;;;;;;1.60;0.80;;;;;;;;;;517421;28;1415;-81
2022/06/07 01:48:16;;;;;;;1.23;0.77;;;;;;;;;;518243;28;1676;-81